createdAt,value
2022-12-31T00:01:43.879Z,4.90
2022-12-31T00:04:13.650Z,4.98
2022-12-31T00:06:43.278Z,5.10
2022-12-31T00:09:14.501Z,5.14
2022-12-31T00:11:44.816Z,5.02
2022-12-31T00:14:14.833Z,5.04
2022-12-31T00:16:45.091Z,5.01
2022-12-31T00:19:14.920Z,4.84
2022-12-31T00:21:46.179Z,5.14
2022-12-31T00:24:18.194Z,4.97
2022-12-31T00:26:48.107Z,5.03
2022-12-31T00:29:17.852Z,5.17
2022-12-31T00:31:47.503Z,5.18
2022-12-31T00:34:17.288Z,5.08
2022-12-31T00:36:47.555Z,5.17
2022-12-31T00:39:20.127Z,5.01
2022-12-31T00:41:49.857Z,5.00
2022-12-31T00:44:20.013Z,4.93
2022-12-31T00:46:50.010Z,4.87
2022-12-31T00:49:19.681Z,4.94
2022-12-31T00:51:49.541Z,5.04
2022-12-31T00:54:20.723Z,5.15
2022-12-31T00:56:50.595Z,4.84
2022-12-31T00:59:20.822Z,4.96
2022-12-31T01:01:51.300Z,4.54
2022-12-31T01:04:23.077Z,5.01
2022-12-31T01:06:52.818Z,4.90
2022-12-31T01:09:24.226Z,4.77
2022-12-31T01:11:54.655Z,4.99
2022-12-31T01:14:24.571Z,4.70
2022-12-31T01:16:55.292Z,4.58
2022-12-31T01:19:27.943Z,4.78
2022-12-31T01:21:58.722Z,5.02
2022-12-31T01:24:30.154Z,5.11
2022-12-31T01:26:59.812Z,5.13
2022-12-31T01:29:29.772Z,4.30
2022-12-31T01:31:59.861Z,4.62
2022-12-31T01:34:30.418Z,4.93
2022-12-31T01:37:00.114Z,4.64
2022-12-31T01:39:31.018Z,4.90
2022-12-31T01:42:00.806Z,4.95
2022-12-31T01:44:50.314Z,4.72
2022-12-31T01:47:25.519Z,4.60
2022-12-31T01:50:01.075Z,4.62
2022-12-31T01:52:33.945Z,4.59
2022-12-31T01:55:08.643Z,4.38
2022-12-31T01:57:39.319Z,4.00
2022-12-31T02:00:11.260Z,4.58
2022-12-31T02:02:41.387Z,4.68
2022-12-31T02:05:17.524Z,4.53
2022-12-31T02:07:47.786Z,4.43
2022-12-31T02:10:19.458Z,4.62
2022-12-31T02:12:49.570Z,4.55
2022-12-31T02:15:20.598Z,4.35
2022-12-31T02:17:55.255Z,4.54
2022-12-31T02:20:43.075Z,4.41
2022-12-31T02:23:35.102Z,4.50
2022-12-31T02:26:25.146Z,4.83
2022-12-31T02:29:17.931Z,4.85
2022-12-31T02:31:51.779Z,4.80
2022-12-31T02:34:27.028Z,4.53
2022-12-31T02:37:00.608Z,4.36
2022-12-31T02:39:31.441Z,4.75
2022-12-31T02:42:02.449Z,4.63
2022-12-31T02:44:34.546Z,4.53
2022-12-31T02:47:16.512Z,4.44
2022-12-31T02:49:56.229Z,4.41
2022-12-31T02:52:33.437Z,4.68
2022-12-31T02:55:09.791Z,4.80
2022-12-31T02:57:43.594Z,4.48
2022-12-31T03:00:32.344Z,4.33
2022-12-31T03:03:04.651Z,4.68
2022-12-31T03:05:37.854Z,4.78
2022-12-31T03:08:08.224Z,4.57
2022-12-31T03:10:39.047Z,4.32
2022-12-31T03:13:07.882Z,4.71
2022-12-31T03:15:37.494Z,4.37
2022-12-31T03:18:10.169Z,4.63
2022-12-31T03:20:59.425Z,4.50
2022-12-31T03:23:31.685Z,4.50
2022-12-31T03:26:01.820Z,4.59
2022-12-31T03:28:32.712Z,4.74
2022-12-31T03:31:03.603Z,4.06
2022-12-31T03:33:37.043Z,4.36
2022-12-31T03:36:08.578Z,4.64
2022-12-31T03:38:38.416Z,4.15
2022-12-31T03:41:11.159Z,4.71
2022-12-31T03:43:40.939Z,4.60
2022-12-31T03:46:10.643Z,4.71
2022-12-31T03:48:41.759Z,4.52
2022-12-31T03:51:14.175Z,4.04
2022-12-31T03:53:43.922Z,4.27
2022-12-31T03:56:13.910Z,4.62
2022-12-31T03:58:44.269Z,4.21
2022-12-31T04:01:14.564Z,4.77
2022-12-31T04:03:46.153Z,5.02
2022-12-31T04:06:16.904Z,4.59
2022-12-31T04:08:46.529Z,4.72
2022-12-31T04:11:20.768Z,4.72
2022-12-31T04:13:51.253Z,4.90
2022-12-31T04:16:20.941Z,4.86
2022-12-31T04:18:52.041Z,4.91
2022-12-31T04:21:21.769Z,4.58
2022-12-31T04:23:51.460Z,4.74
2022-12-31T04:26:21.004Z,4.95
2022-12-31T04:28:51.119Z,4.70
2022-12-31T04:31:21.272Z,4.91
2022-12-31T04:33:52.367Z,4.87
2022-12-31T04:36:22.304Z,4.42
2022-12-31T04:38:52.496Z,4.96
2022-12-31T04:41:22.539Z,4.76
2022-12-31T04:43:53.879Z,4.75
2022-12-31T04:46:24.390Z,4.41
2022-12-31T04:48:55.606Z,4.71
2022-12-31T04:51:26.154Z,4.79
2022-12-31T04:53:56.326Z,4.60
2022-12-31T04:56:26.357Z,4.79
2022-12-31T04:58:56.514Z,4.98
2022-12-31T05:01:26.728Z,4.63
2022-12-31T05:03:58.811Z,4.82
2022-12-31T05:06:28.594Z,4.69
2022-12-31T05:08:58.186Z,4.44
2022-12-31T05:11:28.643Z,4.50
2022-12-31T05:13:58.570Z,4.26
2022-12-31T05:16:28.788Z,4.64
2022-12-31T05:19:00.019Z,4.43
2022-12-31T05:21:29.434Z,4.46
2022-12-31T05:23:59.153Z,4.43
2022-12-31T05:26:29.530Z,4.70
2022-12-31T05:29:00.549Z,4.67
2022-12-31T05:31:30.198Z,4.83
2022-12-31T05:34:01.599Z,4.86
2022-12-31T05:36:31.110Z,4.91
2022-12-31T05:39:00.919Z,4.82
2022-12-31T05:41:31.028Z,4.83
2022-12-31T05:44:00.954Z,4.84
2022-12-31T05:46:30.723Z,4.66
2022-12-31T05:49:01.944Z,4.90
2022-12-31T05:51:31.939Z,4.97
2022-12-31T05:54:01.398Z,5.05
2022-12-31T05:56:31.244Z,5.19
2022-12-31T05:59:00.965Z,4.91
2022-12-31T06:01:30.552Z,4.92
2022-12-31T06:04:01.810Z,4.60
2022-12-31T06:06:31.461Z,4.72
2022-12-31T06:09:01.338Z,4.78
2022-12-31T06:11:30.679Z,4.98
2022-12-31T06:14:00.330Z,4.87
2022-12-31T06:16:30.215Z,5.08
2022-12-31T06:19:02.523Z,5.00
2022-12-31T06:21:32.439Z,5.32
2022-12-31T06:24:02.782Z,5.04
2022-12-31T06:26:32.875Z,5.07
2022-12-31T06:29:02.638Z,4.92
2022-12-31T06:31:32.636Z,5.11
2022-12-31T06:34:03.721Z,5.17
2022-12-31T06:36:33.505Z,5.20
2022-12-31T06:39:04.018Z,5.34
2022-12-31T06:41:33.619Z,5.26
2022-12-31T06:44:03.175Z,5.05
2022-12-31T06:46:32.919Z,5.18
2022-12-31T06:49:04.224Z,5.19
2022-12-31T06:51:34.787Z,5.38
2022-12-31T06:54:04.510Z,5.40
2022-12-31T06:56:35.536Z,5.40
2022-12-31T06:59:06.805Z,5.50
2022-12-31T07:01:45.761Z,5.56
2022-12-31T07:04:32.585Z,5.17
2022-12-31T07:07:09.153Z,5.35
2022-12-31T07:09:41.929Z,5.17
2022-12-31T07:12:17.937Z,5.22
2022-12-31T07:14:50.769Z,5.01
2022-12-31T07:17:27.876Z,5.28
2022-12-31T07:20:03.120Z,5.33
2022-12-31T07:22:33.651Z,5.53
2022-12-31T07:25:06.758Z,5.26
2022-12-31T07:27:56.420Z,5.56
2022-12-31T07:30:30.711Z,5.40
2022-12-31T07:33:23.964Z,5.34
2022-12-31T07:36:02.834Z,5.18
2022-12-31T07:38:36.558Z,5.43
2022-12-31T07:41:12.624Z,5.60
2022-12-31T07:43:50.559Z,5.26
2022-12-31T07:46:28.415Z,5.54
2022-12-31T07:48:59.307Z,5.78
2022-12-31T07:51:32.189Z,5.24
2022-12-31T07:54:02.153Z,5.78
2022-12-31T07:56:32.928Z,5.87
2022-12-31T07:59:22.540Z,5.68
2022-12-31T08:02:00.583Z,5.59
2022-12-31T08:04:35.895Z,5.72
2022-12-31T08:07:17.179Z,5.77
2022-12-31T08:09:51.954Z,5.80
2022-12-31T08:12:23.869Z,5.60
2022-12-31T08:14:54.124Z,5.91
2022-12-31T08:17:24.592Z,5.77
2022-12-31T08:19:55.229Z,6.03
2022-12-31T08:22:43.932Z,6.09
2022-12-31T08:25:21.380Z,5.79
2022-12-31T08:27:59.746Z,6.13
2022-12-31T08:30:37.422Z,6.07
2022-12-31T08:33:14.764Z,6.02
2022-12-31T08:36:03.197Z,6.19
2022-12-31T08:38:52.631Z,6.04
2022-12-31T08:41:29.319Z,6.32
2022-12-31T08:44:09.264Z,6.26
2022-12-31T08:46:42.949Z,6.33
2022-12-31T08:49:15.102Z,6.35
2022-12-31T08:51:45.494Z,6.46
2022-12-31T08:54:18.560Z,6.44
2022-12-31T08:56:53.364Z,6.31
2022-12-31T08:59:37.138Z,6.42
2022-12-31T09:02:48.676Z,6.48
2022-12-31T09:05:24.427Z,6.52
2022-12-31T09:08:05.032Z,6.51
2022-12-31T09:10:42.623Z,6.54
2022-12-31T09:13:17.739Z,6.64
2022-12-31T09:15:53.590Z,6.58
2022-12-31T09:18:29.737Z,6.72
2022-12-31T09:21:03.428Z,6.66
2022-12-31T09:23:34.364Z,6.71
2022-12-31T09:26:13.157Z,6.69
2022-12-31T09:28:49.449Z,6.78
2022-12-31T09:31:23.565Z,6.82
2022-12-31T09:33:59.580Z,6.76
2022-12-31T09:36:32.909Z,6.87
2022-12-31T09:39:06.805Z,6.98
2022-12-31T09:42:07.125Z,6.96
2022-12-31T09:45:11.364Z,6.78
2022-12-31T09:48:10.039Z,7.03
2022-12-31T09:50:56.397Z,6.96
2022-12-31T09:53:41.734Z,7.08
2022-12-31T09:56:17.949Z,6.98
2022-12-31T09:58:53.950Z,7.08
2022-12-31T10:01:38.019Z,7.12
2022-12-31T10:04:31.959Z,7.11
2022-12-31T10:07:16.006Z,7.18
2022-12-31T10:10:07.860Z,7.17
2022-12-31T10:13:09.985Z,7.30
2022-12-31T10:15:59.962Z,7.23
2022-12-31T10:18:44.093Z,7.35
2022-12-31T10:21:27.431Z,7.11
2022-12-31T10:24:19.689Z,7.37
2022-12-31T10:27:14.526Z,7.39
2022-12-31T10:29:48.880Z,7.35
2022-12-31T10:32:26.326Z,7.40
2022-12-31T10:35:12.463Z,7.41
2022-12-31T10:37:46.275Z,7.30
2022-12-31T10:40:27.645Z,7.32
2022-12-31T10:43:43.232Z,7.51
2022-12-31T10:46:48.529Z,7.52
2022-12-31T10:50:00.422Z,7.25
2022-12-31T10:56:01.908Z,7.58
2022-12-31T10:59:07.430Z,7.69
2022-12-31T11:01:44.922Z,7.70
2022-12-31T11:04:50.949Z,7.80
2022-12-31T11:07:48.893Z,7.58
2022-12-31T11:10:51.455Z,7.52
2022-12-31T11:13:53.532Z,7.66
2022-12-31T11:16:35.449Z,7.35
2022-12-31T11:19:12.143Z,7.72
2022-12-31T11:21:59.414Z,7.61
2022-12-31T11:24:39.453Z,7.85
2022-12-31T11:27:22.551Z,7.67
2022-12-31T11:30:08.036Z,7.91
2022-12-31T11:32:52.214Z,8.02
2022-12-31T11:35:34.008Z,8.21
2022-12-31T11:38:14.849Z,8.11
2022-12-31T11:41:01.977Z,7.94
2022-12-31T11:43:38.729Z,8.39
2022-12-31T11:46:27.689Z,8.54
2022-12-31T11:49:26.520Z,8.58
2022-12-31T11:52:28.200Z,8.75
2022-12-31T11:55:16.107Z,8.87
2022-12-31T11:57:50.596Z,9.24
2022-12-31T12:00:22.518Z,9.32
2022-12-31T12:02:57.904Z,9.27
2022-12-31T12:05:28.589Z,9.59
2022-12-31T12:07:59.363Z,9.59
2022-12-31T12:10:36.074Z,9.42
2022-12-31T12:13:15.691Z,9.30
2022-12-31T12:15:47.985Z,9.28
2022-12-31T12:18:29.511Z,9.44
2022-12-31T12:21:12.045Z,9.42
2022-12-31T12:23:43.018Z,9.42
2022-12-31T12:26:29.015Z,9.54
2022-12-31T12:29:10.131Z,9.39
2022-12-31T12:31:40.389Z,9.21
2022-12-31T12:34:25.296Z,9.22
2022-12-31T12:36:55.298Z,9.27
2022-12-31T12:39:27.904Z,9.36
2022-12-31T12:42:05.859Z,9.32
2022-12-31T12:44:36.082Z,9.24
2022-12-31T12:47:08.221Z,9.28
2022-12-31T12:49:43.673Z,9.32
2022-12-31T12:52:39.948Z,9.27
2022-12-31T12:55:18.913Z,9.35
2022-12-31T12:57:52.738Z,9.30
2022-12-31T13:00:25.127Z,9.23
2022-12-31T13:03:36.754Z,9.17
2022-12-31T13:06:27.501Z,9.14
2022-12-31T13:09:14.918Z,9.04
2022-12-31T13:11:52.241Z,9.04
2022-12-31T13:14:29.068Z,8.99
2022-12-31T13:17:05.088Z,8.92
2022-12-31T13:19:38.694Z,8.95
2022-12-31T13:22:13.693Z,8.96
2022-12-31T13:24:55.908Z,9.01
2022-12-31T13:27:32.013Z,9.08
2022-12-31T13:30:04.248Z,9.13
2022-12-31T13:32:40.642Z,9.20
2022-12-31T13:35:25.853Z,9.29
2022-12-31T13:38:05.688Z,9.23
2022-12-31T13:40:46.535Z,9.24
2022-12-31T13:43:20.690Z,9.38
2022-12-31T13:46:02.855Z,9.64
2022-12-31T13:48:37.107Z,9.86
2022-12-31T13:51:13.622Z,9.57
2022-12-31T13:53:49.124Z,9.48
2022-12-31T13:56:22.319Z,9.42
2022-12-31T13:58:56.192Z,9.37
2022-12-31T14:01:33.830Z,9.19
2022-12-31T14:04:09.424Z,9.23
2022-12-31T14:06:46.913Z,9.19
2022-12-31T14:09:21.913Z,9.18
2022-12-31T14:12:15.735Z,9.16
2022-12-31T14:14:50.813Z,9.18
2022-12-31T14:17:26.627Z,9.15
2022-12-31T14:20:04.385Z,9.04
2022-12-31T14:22:40.315Z,9.05
2022-12-31T14:25:21.058Z,8.93
2022-12-31T14:27:52.379Z,8.87
2022-12-31T14:30:23.931Z,9.04
2022-12-31T14:33:27.095Z,8.90
2022-12-31T14:36:19.182Z,8.74
2022-12-31T14:39:07.515Z,8.79
2022-12-31T14:41:52.676Z,8.73
2022-12-31T14:44:33.814Z,8.77
2022-12-31T14:47:13.030Z,8.67
2022-12-31T14:49:50.274Z,8.71
2022-12-31T14:52:25.665Z,8.65
2022-12-31T14:55:04.474Z,8.51
2022-12-31T14:58:17.267Z,8.61
2022-12-31T15:00:34.331Z,8.41
2022-12-31T15:03:06.018Z,8.42
2022-12-31T15:05:37.698Z,8.40
2022-12-31T15:08:23.994Z,8.47
2022-12-31T15:11:07.576Z,8.39
2022-12-31T15:13:48.748Z,8.40
2022-12-31T15:16:30.495Z,8.39
2022-12-31T15:19:44.805Z,8.35
2022-12-31T15:22:27.488Z,8.36
2022-12-31T15:24:57.245Z,8.33
2022-12-31T15:27:36.283Z,8.44
2022-12-31T15:30:09.853Z,8.19
2022-12-31T15:32:43.167Z,8.18
2022-12-31T15:35:28.219Z,8.15
2022-12-31T15:38:03.068Z,7.92
2022-12-31T15:40:33.126Z,7.98
2022-12-31T15:43:06.589Z,8.07
2022-12-31T15:45:40.069Z,8.06
2022-12-31T15:48:15.748Z,8.20
2022-12-31T15:50:47.067Z,8.04
2022-12-31T15:53:28.346Z,7.88
2022-12-31T15:56:00.566Z,7.84
2022-12-31T15:58:33.229Z,7.79
2022-12-31T16:01:10.654Z,7.59
2022-12-31T16:03:45.670Z,7.60
2022-12-31T16:06:17.238Z,7.66
2022-12-31T16:08:50.043Z,7.54
2022-12-31T16:11:20.556Z,7.61
2022-12-31T16:13:52.553Z,7.62
2022-12-31T16:16:25.894Z,7.73
2022-12-31T16:18:57.211Z,7.70
2022-12-31T16:21:38.068Z,7.78
2022-12-31T16:24:22.985Z,7.76
2022-12-31T16:26:55.153Z,7.69
2022-12-31T16:29:27.001Z,7.51
2022-12-31T16:31:58.400Z,7.54
2022-12-31T16:34:29.147Z,7.36
2022-12-31T16:37:01.270Z,7.41
2022-12-31T16:39:33.164Z,7.42
2022-12-31T16:42:21.033Z,7.15
2022-12-31T16:44:52.506Z,7.17
2022-12-31T16:47:25.677Z,7.17
2022-12-31T16:50:00.314Z,7.31
2022-12-31T16:52:33.863Z,7.24
2022-12-31T16:55:04.331Z,7.16
2022-12-31T16:57:34.673Z,7.24
2022-12-31T17:00:07.316Z,7.22
2022-12-31T17:02:41.404Z,7.17
2022-12-31T17:05:21.014Z,7.31
2022-12-31T17:07:50.973Z,7.17
2022-12-31T17:10:25.749Z,7.06
2022-12-31T17:15:48.722Z,7.07
2022-12-31T17:18:22.295Z,7.01
2022-12-31T17:20:54.019Z,7.03
2022-12-31T17:23:28.460Z,7.01
2022-12-31T17:26:03.120Z,7.04
2022-12-31T17:28:39.820Z,6.64
2022-12-31T17:31:32.959Z,6.74
2022-12-31T17:34:24.984Z,6.69
2022-12-31T17:37:02.563Z,6.40
2022-12-31T17:39:45.435Z,6.66
2022-12-31T17:42:17.351Z,6.49
2022-12-31T17:44:47.170Z,6.56
2022-12-31T17:47:17.247Z,6.43
2022-12-31T17:49:48.852Z,6.57
2022-12-31T17:52:19.279Z,6.63
2022-12-31T17:54:49.825Z,6.37
2022-12-31T17:57:29.133Z,6.36
2022-12-31T17:59:59.124Z,6.52
2022-12-31T18:02:30.776Z,6.63
2022-12-31T18:05:07.500Z,6.64
2022-12-31T18:07:37.804Z,6.69
2022-12-31T18:10:08.673Z,6.70
2022-12-31T18:12:38.789Z,6.68
2022-12-31T18:15:09.569Z,6.68
2022-12-31T18:17:39.282Z,6.68
2022-12-31T18:20:12.311Z,6.83
2022-12-31T18:22:44.258Z,6.59
2022-12-31T18:25:17.717Z,6.62
2022-12-31T18:27:48.240Z,6.66
2022-12-31T18:30:18.762Z,6.65
2022-12-31T18:32:49.182Z,6.65
2022-12-31T18:38:16.059Z,6.46
2022-12-31T18:40:50.811Z,6.41
2022-12-31T18:43:21.524Z,6.36
2022-12-31T18:45:52.304Z,6.48
2022-12-31T18:48:22.174Z,6.26
2022-12-31T18:50:54.081Z,6.23
2022-12-31T18:53:25.300Z,6.28
2022-12-31T18:55:57.187Z,6.21
2022-12-31T18:58:27.488Z,6.34
2022-12-31T19:00:57.844Z,6.22
2022-12-31T19:03:28.955Z,6.23
2022-12-31T19:06:00.711Z,6.14
2022-12-31T19:08:33.174Z,6.18
2022-12-31T19:11:03.968Z,6.12
2022-12-31T19:13:33.643Z,6.06
2022-12-31T19:16:03.440Z,6.06
2022-12-31T19:18:33.586Z,6.18
2022-12-31T19:21:05.506Z,6.14
2022-12-31T19:23:35.631Z,6.02
2022-12-31T19:26:05.364Z,5.98
2022-12-31T19:28:35.457Z,6.10
2022-12-31T19:31:05.755Z,5.99
2022-12-31T19:33:36.246Z,6.00
2022-12-31T19:36:11.646Z,5.88
2022-12-31T19:38:41.110Z,5.94
2022-12-31T19:41:17.540Z,6.06
2022-12-31T19:43:49.087Z,6.07
2022-12-31T19:46:20.302Z,5.73
2022-12-31T19:48:50.357Z,5.78
2022-12-31T19:51:23.031Z,5.82
2022-12-31T19:53:52.714Z,5.65
2022-12-31T19:56:22.872Z,5.73
2022-12-31T19:58:52.547Z,5.76
2022-12-31T20:01:24.015Z,5.69
2022-12-31T20:03:54.107Z,5.92
2022-12-31T20:06:26.295Z,5.68
2022-12-31T20:08:56.321Z,5.86
2022-12-31T20:11:27.106Z,5.73
2022-12-31T20:13:57.069Z,5.67
2022-12-31T20:16:30.284Z,5.72
2022-12-31T20:19:00.529Z,5.69
2022-12-31T20:21:32.682Z,5.73
2022-12-31T20:24:03.035Z,5.61
2022-12-31T20:26:33.034Z,5.51
2022-12-31T20:29:03.023Z,5.36
2022-12-31T20:31:33.430Z,5.17
2022-12-31T20:34:03.254Z,5.46
2022-12-31T20:36:34.256Z,5.53
2022-12-31T20:39:04.299Z,5.44
2022-12-31T20:41:33.806Z,5.45
2022-12-31T20:44:03.834Z,5.44
2022-12-31T20:46:34.137Z,5.41
2022-12-31T20:49:05.957Z,5.36
2022-12-31T20:51:37.374Z,4.98
2022-12-31T20:54:08.543Z,5.24
2022-12-31T20:56:39.698Z,5.02
2022-12-31T20:59:11.449Z,5.32
2022-12-31T21:02:19.353Z,5.15
2022-12-31T21:04:31.303Z,5.14
2022-12-31T21:07:02.514Z,5.35
2022-12-31T21:09:32.048Z,5.02
2022-12-31T21:12:19.217Z,5.03
2022-12-31T21:14:49.649Z,5.10
2022-12-31T21:17:19.715Z,5.01
2022-12-31T21:19:50.000Z,4.86
2022-12-31T21:22:21.542Z,5.24
2022-12-31T21:24:51.273Z,4.70
2022-12-31T21:27:20.969Z,4.66
2022-12-31T21:30:17.805Z,5.24
2022-12-31T21:32:41.218Z,5.21
2022-12-31T21:35:42.409Z,4.96
2022-12-31T21:38:05.018Z,5.17
2022-12-31T21:40:35.554Z,5.05
2022-12-31T21:43:05.603Z,4.90
2022-12-31T21:45:36.441Z,4.89
2022-12-31T21:48:25.362Z,5.15
2022-12-31T21:50:57.019Z,5.15
2022-12-31T21:53:36.197Z,5.06
2022-12-31T21:56:10.871Z,5.33
2022-12-31T21:58:42.359Z,5.34
2022-12-31T22:01:34.172Z,5.34
2022-12-31T22:04:04.496Z,5.27
2022-12-31T22:06:35.721Z,5.23
2022-12-31T22:09:07.178Z,5.01
2022-12-31T22:11:37.632Z,4.88
2022-12-31T22:14:07.165Z,5.17
2022-12-31T22:16:37.769Z,5.02
2022-12-31T22:19:07.499Z,5.12
2022-12-31T22:21:37.739Z,5.38
2022-12-31T22:24:10.280Z,5.20
2022-12-31T22:26:46.337Z,5.13
2022-12-31T22:29:17.269Z,4.84
2022-12-31T22:31:47.037Z,5.04
2022-12-31T22:34:17.084Z,5.06
2022-12-31T22:36:47.154Z,5.13
2022-12-31T22:39:43.875Z,5.02
2022-12-31T22:42:12.363Z,5.23
2022-12-31T22:44:42.610Z,5.29
2022-12-31T22:47:12.095Z,5.20
2022-12-31T22:49:42.129Z,5.06
2022-12-31T22:52:11.829Z,5.18
2022-12-31T22:54:43.618Z,5.23
2022-12-31T22:57:19.672Z,5.18
2022-12-31T22:59:51.595Z,4.98
2022-12-31T23:02:21.609Z,5.01
2022-12-31T23:04:52.244Z,5.31
2022-12-31T23:07:22.418Z,5.08
2022-12-31T23:10:11.279Z,5.08
2022-12-31T23:12:41.669Z,4.60
2022-12-31T23:15:29.799Z,4.74
2022-12-31T23:18:17.119Z,5.11
2022-12-31T23:21:04.485Z,4.92
2022-12-31T23:23:34.329Z,4.93
2022-12-31T23:26:07.130Z,4.99
2022-12-31T23:28:37.216Z,4.93
2022-12-31T23:31:08.284Z,4.99
2022-12-31T23:33:38.536Z,4.88
2022-12-31T23:36:09.617Z,4.64
2022-12-31T23:38:39.670Z,4.74
2022-12-31T23:41:25.710Z,5.06
2022-12-31T23:43:56.709Z,5.12
2022-12-31T23:46:26.584Z,5.07
2022-12-31T23:48:56.903Z,4.83
2022-12-31T23:51:26.883Z,4.46
2022-12-31T23:53:57.984Z,4.72
2022-12-31T23:56:29.485Z,4.82
2022-12-31T23:59:00.597Z,4.95
